createdAt,value
2022-10-24T00:01:18.882Z,97964.19
2022-10-24T00:03:46.300Z,97965.91
2022-10-24T00:06:13.806Z,97967.38
2022-10-24T00:08:43.026Z,97982.91
2022-10-24T00:11:23.471Z,97980.56
2022-10-24T00:13:51.500Z,97977.53
2022-10-24T00:16:19.171Z,97979.72
2022-10-24T00:18:46.668Z,97982.41
2022-10-24T00:21:14.214Z,97981.47
2022-10-24T00:23:41.537Z,97986.72
2022-10-24T00:26:09.013Z,97978.78
2022-10-24T00:28:37.241Z,97980.81
2022-10-24T00:31:06.375Z,97978.03
2022-10-24T00:33:34.365Z,97989.66
2022-10-24T00:36:01.740Z,97978.13
2022-10-24T00:38:29.036Z,97980.97
2022-10-24T00:40:56.331Z,97987.47
2022-10-24T00:43:26.164Z,97985.91
2022-10-24T00:46:01.339Z,97987.72
2022-10-24T00:48:41.153Z,98004.00
2022-10-24T00:51:27.286Z,98002.75
2022-10-24T00:56:34.904Z,97994.66
2022-10-24T00:59:04.336Z,97998.34
2022-10-24T01:01:32.206Z,97993.22
2022-10-24T01:03:59.736Z,97997.81
2022-10-24T01:06:38.845Z,98004.66
2022-10-24T01:09:18.247Z,97998.88
2022-10-24T01:12:01.307Z,98008.03
2022-10-24T01:14:36.127Z,97989.13
2022-10-24T01:17:30.944Z,97992.97
2022-10-24T01:20:12.165Z,97995.00
2022-10-24T01:22:51.436Z,97989.72
2022-10-24T01:25:22.560Z,97997.38
2022-10-24T01:28:15.617Z,97998.31
2022-10-24T01:30:48.979Z,97989.47
2022-10-24T01:33:19.109Z,97998.53
2022-10-24T01:36:06.142Z,97991.19
2022-10-24T01:38:46.684Z,97992.28
2022-10-24T01:41:26.457Z,97987.66
2022-10-24T01:44:03.028Z,97983.06
2022-10-24T01:46:37.791Z,97983.38
2022-10-24T01:49:17.633Z,97987.16
2022-10-24T01:51:47.190Z,97995.31
2022-10-24T01:54:15.478Z,97987.31
2022-10-24T01:56:42.804Z,97992.59
2022-10-24T01:59:28.499Z,98001.75
2022-10-24T02:02:36.356Z,97992.06
2022-10-24T02:05:29.898Z,97984.56
2022-10-24T02:08:03.261Z,97974.97
2022-10-24T02:10:42.297Z,97980.19
2022-10-24T02:13:17.112Z,97980.56
2022-10-24T02:15:49.377Z,97988.34
2022-10-24T02:18:16.884Z,97983.84
2022-10-24T02:21:10.101Z,97979.19
2022-10-24T02:24:01.375Z,97992.94
2022-10-24T02:26:54.728Z,97999.19
2022-10-24T02:29:48.139Z,97995.81
2022-10-24T02:32:35.253Z,97993.59
2022-10-24T02:35:04.465Z,97979.72
2022-10-24T02:37:33.813Z,97976.91
2022-10-24T02:40:02.038Z,97982.53
2022-10-24T02:42:30.816Z,97981.00
2022-10-24T02:44:58.375Z,97981.97
2022-10-24T02:47:26.634Z,97974.81
2022-10-24T02:49:54.302Z,97967.41
2022-10-24T02:52:23.519Z,97964.06
2022-10-24T02:54:51.350Z,97967.66
2022-10-24T02:57:18.900Z,97954.84
2022-10-24T02:59:46.246Z,97943.03
2022-10-24T03:02:13.604Z,97941.53
2022-10-24T03:04:40.976Z,97952.28
2022-10-24T03:07:08.435Z,97943.84
2022-10-24T03:09:35.949Z,97937.16
2022-10-24T03:12:03.855Z,97945.88
2022-10-24T03:14:31.173Z,97952.53
2022-10-24T03:16:58.520Z,97961.81
2022-10-24T03:19:25.821Z,97974.53
2022-10-24T03:21:53.216Z,97978.22
2022-10-24T03:24:31.042Z,97969.38
2022-10-24T03:27:07.821Z,97975.78
2022-10-24T03:29:35.272Z,97984.81
2022-10-24T03:32:02.674Z,97991.06
2022-10-24T03:34:30.121Z,97994.09
2022-10-24T03:36:57.409Z,97975.47
2022-10-24T03:39:24.751Z,97965.78
2022-10-24T03:41:52.085Z,97969.13
2022-10-24T03:44:19.423Z,97975.53
2022-10-24T03:46:46.718Z,97977.41
2022-10-24T03:49:14.069Z,97981.50
2022-10-24T03:51:41.477Z,97963.59
2022-10-24T03:54:09.489Z,97977.88
2022-10-24T03:56:36.824Z,97977.38
2022-10-24T03:59:04.122Z,97972.09
2022-10-24T04:01:31.509Z,97983.69
2022-10-24T04:03:58.882Z,97973.00
2022-10-24T04:06:26.239Z,97979.59
2022-10-24T04:08:53.604Z,97983.22
2022-10-24T04:11:20.936Z,97984.56
2022-10-24T04:13:48.240Z,97979.59
2022-10-24T04:16:15.653Z,97992.81
2022-10-24T04:18:42.967Z,97992.34
2022-10-24T04:21:10.614Z,97987.66
2022-10-24T04:23:41.072Z,97978.44
2022-10-24T04:26:09.226Z,97991.81
2022-10-24T04:28:36.677Z,97990.84
2022-10-24T04:31:04.166Z,97985.00
2022-10-24T04:33:31.550Z,97978.81
2022-10-24T04:35:58.888Z,97972.66
2022-10-24T04:38:27.828Z,97967.00
2022-10-24T04:40:57.381Z,97971.03
2022-10-24T04:43:25.064Z,97971.84
2022-10-24T04:45:52.428Z,97964.97
2022-10-24T04:48:25.912Z,97962.19
2022-10-24T04:50:53.225Z,97966.50
2022-10-24T04:53:20.653Z,97957.97
2022-10-24T04:55:48.025Z,97952.81
2022-10-24T04:58:15.300Z,97954.81
2022-10-24T05:00:46.555Z,97949.69
2022-10-24T05:03:14.435Z,97949.69
2022-10-24T05:05:41.729Z,97946.31
2022-10-24T05:08:09.053Z,97958.66
2022-10-24T05:10:36.433Z,97973.09
2022-10-24T05:13:04.256Z,97980.38
2022-10-24T05:15:31.668Z,97980.88
2022-10-24T05:17:59.465Z,97976.47
2022-10-24T05:20:27.155Z,97981.75
2022-10-24T05:22:54.619Z,97976.41
2022-10-24T05:25:21.916Z,97981.53
2022-10-24T05:27:49.324Z,97966.69
2022-10-24T05:30:16.747Z,97963.22
2022-10-24T05:32:44.383Z,97960.72
2022-10-24T05:35:11.931Z,97965.63
2022-10-24T05:37:39.698Z,97972.56
2022-10-24T05:40:08.580Z,97980.09
2022-10-24T05:42:36.573Z,97983.78
2022-10-24T05:45:05.742Z,97978.59
2022-10-24T05:47:33.036Z,97979.22
2022-10-24T05:50:00.365Z,97993.78
2022-10-24T05:52:27.827Z,97998.53
2022-10-24T05:55:06.369Z,98002.50
2022-10-24T05:57:35.217Z,98004.72
2022-10-24T06:00:03.021Z,98005.41
2022-10-24T06:02:40.126Z,97995.38
2022-10-24T06:05:09.077Z,98019.41
2022-10-24T06:07:36.947Z,98024.16
2022-10-24T06:10:06.157Z,98016.53
2022-10-24T06:12:33.698Z,98009.53
2022-10-24T06:15:01.117Z,98013.47
2022-10-24T06:17:28.529Z,98014.34
2022-10-24T06:19:55.821Z,98011.22
2022-10-24T06:22:27.771Z,98029.03
2022-10-24T06:24:55.316Z,98071.47
2022-10-24T06:27:23.397Z,98094.22
2022-10-24T06:29:50.678Z,98123.47
2022-10-24T06:32:18.104Z,98106.38
2022-10-24T06:34:45.444Z,98093.22
2022-10-24T06:37:12.705Z,98070.53
2022-10-24T06:39:40.107Z,98076.31
2022-10-24T06:42:07.519Z,98071.56
2022-10-24T06:44:38.464Z,98076.72
2022-10-24T06:47:06.875Z,98072.41
2022-10-24T06:49:34.245Z,98077.97
2022-10-24T06:52:01.633Z,98073.84
2022-10-24T06:54:30.458Z,98065.03
2022-10-24T06:56:58.053Z,98075.06
2022-10-24T06:59:25.538Z,98068.56
2022-10-24T07:01:53.075Z,98084.53
2022-10-24T07:04:20.703Z,98068.94
2022-10-24T07:06:48.093Z,98067.69
2022-10-24T07:09:15.827Z,98065.34
2022-10-24T07:11:43.824Z,98073.06
2022-10-24T07:14:11.897Z,98074.34
2022-10-24T07:16:39.735Z,98072.66
2022-10-24T07:19:07.492Z,98081.00
2022-10-24T07:21:35.145Z,98089.56
2022-10-24T07:24:02.665Z,98086.53
2022-10-24T07:26:30.592Z,98100.97
2022-10-24T07:31:35.651Z,98130.84
2022-10-24T07:34:05.904Z,98125.97
2022-10-24T07:36:33.593Z,98131.44
2022-10-24T07:39:01.342Z,98141.78
2022-10-24T07:41:31.005Z,98135.03
2022-10-24T07:43:59.678Z,98132.72
2022-10-24T07:46:27.101Z,98111.91
2022-10-24T07:48:54.858Z,98103.09
2022-10-24T07:51:22.600Z,98094.81
2022-10-24T07:53:50.277Z,98087.56
2022-10-24T07:56:18.180Z,98081.31
2022-10-24T07:58:46.881Z,98079.34
2022-10-24T08:01:17.969Z,98072.84
2022-10-24T08:03:45.944Z,98064.91
2022-10-24T08:06:19.251Z,98074.25
2022-10-24T08:08:46.834Z,98072.72
2022-10-24T08:11:21.469Z,98076.06
2022-10-24T08:13:49.881Z,98076.53
2022-10-24T08:16:19.272Z,98064.41
2022-10-24T08:18:46.907Z,98084.25
2022-10-24T08:21:16.572Z,98089.25
2022-10-24T08:23:45.990Z,98091.97
2022-10-24T08:26:16.399Z,98090.41
2022-10-24T08:28:45.347Z,98089.78
2022-10-24T08:31:15.388Z,98100.75
2022-10-24T08:33:43.047Z,98083.59
2022-10-24T08:36:30.911Z,98062.13
2022-10-24T08:38:58.913Z,98061.56
2022-10-24T08:41:26.135Z,98048.00
2022-10-24T08:43:54.685Z,98019.53
2022-10-24T08:46:59.858Z,98029.00
2022-10-24T08:49:50.704Z,98026.53
2022-10-24T08:52:33.183Z,98035.00
2022-10-24T08:55:16.543Z,98022.88
2022-10-24T08:57:54.918Z,98031.34
2022-10-24T09:00:25.274Z,98035.16
2022-10-24T09:03:04.290Z,98049.47
2022-10-24T09:05:41.402Z,98053.28
2022-10-24T09:08:34.629Z,98051.66
2022-10-24T09:11:04.356Z,98052.69
2022-10-24T09:13:33.263Z,98050.69
2022-10-24T09:16:00.562Z,98052.72
2022-10-24T09:18:38.333Z,98055.59
2022-10-24T09:21:09.873Z,98059.44
2022-10-24T09:23:38.096Z,98065.47
2022-10-24T09:26:15.116Z,98054.16
2022-10-24T09:28:43.089Z,98072.53
2022-10-24T09:31:17.156Z,98079.69
2022-10-24T09:33:46.374Z,98089.53
2022-10-24T09:36:17.262Z,98101.84
2022-10-24T09:38:46.824Z,98098.38
2022-10-24T09:41:19.304Z,98098.22
2022-10-24T09:43:47.023Z,98106.03
2022-10-24T09:46:18.386Z,98103.31
2022-10-24T09:49:00.238Z,98116.16
2022-10-24T09:51:35.728Z,98115.44
2022-10-24T09:54:07.608Z,98109.75
2022-10-24T09:56:44.561Z,98109.22
2022-10-24T09:59:30.931Z,98100.72
2022-10-24T10:02:19.619Z,98097.25
2022-10-24T10:05:03.314Z,98087.09
2022-10-24T10:07:42.208Z,98081.59
2022-10-24T10:10:26.301Z,98091.44
2022-10-24T10:13:24.031Z,98090.91
2022-10-24T10:15:53.626Z,98092.25
2022-10-24T10:18:22.592Z,98100.78
2022-10-24T10:20:59.761Z,98109.75
2022-10-24T10:23:32.662Z,98106.81
2022-10-24T10:26:16.583Z,98107.50
2022-10-24T10:29:06.265Z,98099.88
2022-10-24T10:32:07.030Z,98093.38
2022-10-24T10:34:40.524Z,98099.38
2022-10-24T10:37:25.298Z,98106.22
2022-10-24T10:40:01.215Z,98089.41
2022-10-24T10:43:04.033Z,98101.75
2022-10-24T10:45:41.945Z,98092.59
2022-10-24T10:48:18.155Z,98097.06
2022-10-24T10:51:17.954Z,98085.41
2022-10-24T10:54:04.318Z,98086.91
2022-10-24T10:56:43.144Z,98097.75
2022-10-24T10:59:43.740Z,98097.91
2022-10-24T11:02:17.141Z,98107.22
2022-10-24T11:04:51.759Z,98112.06
2022-10-24T11:07:30.995Z,98116.09
2022-10-24T11:10:01.594Z,98132.94
2022-10-24T11:12:39.133Z,98134.94
2022-10-24T11:15:23.355Z,98138.59
2022-10-24T11:18:01.990Z,98142.28
2022-10-24T11:20:36.123Z,98136.25
2022-10-24T11:23:22.186Z,98146.94
2022-10-24T11:25:52.602Z,98141.28
2022-10-24T11:28:29.407Z,98139.94
2022-10-24T11:31:00.386Z,98147.97
2022-10-24T11:33:38.230Z,98145.63
2022-10-24T11:36:16.537Z,98142.63
2022-10-24T11:39:02.717Z,98151.13
2022-10-24T11:41:34.443Z,98154.47
2022-10-24T11:44:24.086Z,98147.78
2022-10-24T11:47:25.613Z,98134.09
2022-10-24T11:50:11.734Z,98132.44
2022-10-24T11:53:04.676Z,98131.97
2022-10-24T11:55:38.854Z,98121.75
2022-10-24T11:58:19.128Z,98115.91
2022-10-24T12:01:10.746Z,98114.19
2022-10-24T12:03:48.162Z,98125.03
2022-10-24T12:06:40.405Z,98120.00
2022-10-24T12:09:28.521Z,98112.47
2022-10-24T12:12:29.071Z,98117.00
2022-10-24T12:15:27.186Z,98111.34
2022-10-24T12:18:00.467Z,98096.16
2022-10-24T12:20:28.194Z,98104.31
2022-10-24T12:22:55.779Z,98097.00
2022-10-24T12:25:35.649Z,98099.69
2022-10-24T12:28:19.959Z,98084.97
2022-10-24T12:31:08.146Z,98078.66
2022-10-24T12:33:35.544Z,98080.00
2022-10-24T12:36:02.824Z,98084.97
2022-10-24T12:38:30.069Z,98084.34
2022-10-24T12:40:59.220Z,98081.34
2022-10-24T12:43:34.756Z,98081.34
2022-10-24T12:46:15.850Z,98083.22
2022-10-24T12:49:00.672Z,98088.72
2022-10-24T12:51:28.419Z,98078.84
2022-10-24T12:54:03.946Z,98081.00
2022-10-24T12:56:33.127Z,98079.00
2022-10-24T12:59:28.955Z,98082.03
2022-10-24T13:02:31.442Z,98084.69
2022-10-24T13:05:19.618Z,98093.53
2022-10-24T13:08:00.928Z,98098.88
2022-10-24T13:11:04.493Z,98105.56
2022-10-24T13:13:55.960Z,98106.34
2022-10-24T13:16:35.705Z,98110.47
2022-10-24T13:19:04.922Z,98113.50
2022-10-24T13:21:54.812Z,98107.50
2022-10-24T13:24:23.629Z,98108.53
2022-10-24T13:27:12.713Z,98105.50
2022-10-24T13:29:41.197Z,98090.78
2022-10-24T13:32:11.543Z,98092.59
2022-10-24T13:34:53.854Z,98089.47
2022-10-24T13:37:27.703Z,98089.81
2022-10-24T13:39:57.107Z,98098.81
2022-10-24T13:42:28.814Z,98112.50
2022-10-24T13:45:03.714Z,98105.03
2022-10-24T13:47:41.915Z,98106.00
2022-10-24T13:50:22.524Z,98107.16
2022-10-24T13:52:57.711Z,98105.66
2022-10-24T13:55:36.426Z,98102.97
2022-10-24T13:58:06.768Z,98113.16
2022-10-24T14:00:40.561Z,98109.34
2022-10-24T14:03:19.866Z,98109.19
2022-10-24T14:05:53.035Z,98111.66
2022-10-24T14:08:34.137Z,98109.53
2022-10-24T14:11:05.050Z,98125.91
2022-10-24T14:13:36.725Z,98130.25
2022-10-24T14:16:06.815Z,98124.59
2022-10-24T14:18:36.961Z,98125.41
2022-10-24T14:21:05.476Z,98125.41
2022-10-24T14:23:40.192Z,98123.59
2022-10-24T14:26:12.255Z,98117.78
2022-10-24T14:28:44.895Z,98122.44
2022-10-24T14:31:25.018Z,98120.91
2022-10-24T14:33:55.425Z,98121.22
2022-10-24T14:36:25.647Z,98120.59
2022-10-24T14:38:56.295Z,98116.59
2022-10-24T14:41:32.241Z,98127.13
2022-10-24T14:44:00.373Z,98121.25
2022-10-24T14:46:36.841Z,98113.59
2022-10-24T14:49:30.740Z,98113.94
2022-10-24T14:52:10.288Z,98115.41
2022-10-24T14:54:39.129Z,98111.25
2022-10-24T14:57:13.638Z,98105.56
2022-10-24T14:59:44.987Z,98105.22
2022-10-24T15:02:25.366Z,98100.63
2022-10-24T15:04:54.006Z,98104.28
2022-10-24T15:07:31.373Z,98117.28
2022-10-24T15:10:01.030Z,98116.59
2022-10-24T15:12:32.112Z,98115.47
2022-10-24T15:15:24.436Z,98123.34
2022-10-24T15:18:08.329Z,98116.84
2022-10-24T15:20:39.025Z,98119.22
2022-10-24T15:23:07.519Z,98119.88
2022-10-24T15:25:39.298Z,98123.91
2022-10-24T15:28:38.636Z,98117.41
2022-10-24T15:31:11.207Z,98116.41
2022-10-24T15:36:09.134Z,98113.72
2022-10-24T15:38:40.471Z,98114.09
2022-10-24T15:41:10.184Z,98121.22
2022-10-24T15:43:37.536Z,98133.44
2022-10-24T15:46:05.012Z,98135.09
2022-10-24T15:48:32.504Z,98132.94
2022-10-24T15:50:59.972Z,98133.09
2022-10-24T15:53:27.387Z,98136.97
2022-10-24T15:55:54.712Z,98150.94
2022-10-24T15:58:22.087Z,98137.28
2022-10-24T16:00:50.959Z,98141.25
2022-10-24T16:03:23.418Z,98144.75
2022-10-24T16:05:53.359Z,98151.91
2022-10-24T16:08:20.817Z,98137.22
2022-10-24T16:10:52.688Z,98154.34
2022-10-24T16:13:22.409Z,98136.97
2022-10-24T16:15:50.182Z,98145.09
2022-10-24T16:18:17.841Z,98126.09
2022-10-24T16:20:45.312Z,98129.09
2022-10-24T16:23:15.276Z,98140.41
2022-10-24T16:25:42.730Z,98149.53
2022-10-24T16:28:10.313Z,98141.38
2022-10-24T16:30:39.661Z,98146.34
2022-10-24T16:33:07.082Z,98135.47
2022-10-24T16:35:35.935Z,98140.00
2022-10-24T16:38:04.358Z,98149.28
2022-10-24T16:40:32.351Z,98157.94
2022-10-24T16:43:01.924Z,98159.25
2022-10-24T16:45:29.293Z,98162.59
2022-10-24T16:47:56.663Z,98170.94
2022-10-24T16:50:26.452Z,98178.44
2022-10-24T16:52:55.769Z,98160.88
2022-10-24T16:55:23.442Z,98160.16
2022-10-24T16:57:52.155Z,98160.38
2022-10-24T17:00:21.461Z,98154.03
2022-10-24T17:02:51.219Z,98168.50
2022-10-24T17:05:20.472Z,98178.13
2022-10-24T17:07:48.228Z,98178.78
2022-10-24T17:10:18.436Z,98184.44
2022-10-24T17:12:48.296Z,98185.19
2022-10-24T17:15:20.839Z,98177.06
2022-10-24T17:17:49.744Z,98184.66
2022-10-24T17:20:17.729Z,98194.91
2022-10-24T17:22:46.472Z,98185.22
2022-10-24T17:25:23.363Z,98191.78
2022-10-24T17:27:51.324Z,98187.31
2022-10-24T17:30:22.274Z,98180.69
2022-10-24T17:32:50.258Z,98188.91
2022-10-24T17:35:20.778Z,98191.88
2022-10-24T17:37:56.145Z,98196.97
2022-10-24T17:40:26.439Z,98200.06
2022-10-24T17:42:53.891Z,98209.34
2022-10-24T17:45:23.663Z,98216.66
2022-10-24T17:47:51.465Z,98225.22
2022-10-24T17:50:19.384Z,98216.25
2022-10-24T17:52:50.906Z,98219.13
2022-10-24T17:58:12.209Z,98204.19
2022-10-24T18:00:40.169Z,98203.66
2022-10-24T18:03:08.698Z,98195.03
2022-10-24T18:05:38.318Z,98201.78
2022-10-24T18:08:08.054Z,98206.91
2022-10-24T18:10:37.580Z,98208.63
2022-10-24T18:13:05.246Z,98209.94
2022-10-24T18:15:32.694Z,98208.13
2022-10-24T18:18:00.156Z,98216.16
2022-10-24T18:20:27.604Z,98230.16
2022-10-24T18:22:54.981Z,98234.38
2022-10-24T18:25:23.092Z,98276.72
2022-10-24T18:27:51.065Z,98320.06
2022-10-24T18:30:19.502Z,98352.22
2022-10-24T18:32:47.953Z,98380.06
2022-10-24T18:35:15.772Z,98414.44
2022-10-24T18:37:43.186Z,98413.06
2022-10-24T18:40:11.125Z,98414.81
2022-10-24T18:42:43.776Z,98424.28
2022-10-24T18:45:13.705Z,98416.44
2022-10-24T18:47:41.609Z,98417.28
2022-10-24T18:50:17.631Z,98416.47
2022-10-24T18:52:54.061Z,98393.19
2022-10-24T18:55:27.005Z,98380.91
2022-10-24T18:57:54.800Z,98376.25
2022-10-24T19:00:24.509Z,98361.06
2022-10-24T19:03:19.676Z,98339.44
2022-10-24T19:05:54.853Z,98342.69
2022-10-24T19:08:24.387Z,98346.53
2022-10-24T19:10:53.402Z,98360.75
2022-10-24T19:13:20.949Z,98358.75
2022-10-24T19:15:57.694Z,98360.31
2022-10-24T19:18:26.548Z,98366.78
2022-10-24T19:20:54.169Z,98370.72
2022-10-24T19:23:21.492Z,98361.28
2022-10-24T19:25:48.998Z,98359.47
2022-10-24T19:28:18.530Z,98351.97
2022-10-24T19:30:47.016Z,98361.13
2022-10-24T19:33:15.049Z,98352.38
2022-10-24T19:35:47.155Z,98345.91
2022-10-24T19:38:16.155Z,98350.75
2022-10-24T19:40:51.987Z,98361.88
2022-10-24T19:43:20.817Z,98373.94
2022-10-24T19:45:55.063Z,98384.59
2022-10-24T19:48:37.757Z,98389.84
2022-10-24T19:51:11.039Z,98373.47
2022-10-24T19:53:40.731Z,98365.78
2022-10-24T19:56:13.688Z,98335.75
2022-10-24T19:58:41.701Z,98331.78
2022-10-24T20:01:15.276Z,98303.03
2022-10-24T20:03:44.884Z,98297.13
2022-10-24T20:06:12.983Z,98315.22
2022-10-24T20:08:40.758Z,98320.97
2022-10-24T20:11:08.670Z,98330.53
2022-10-24T20:13:36.115Z,98330.72
2022-10-24T20:16:05.969Z,98332.47
2022-10-24T20:18:35.330Z,98342.94
2022-10-24T20:21:04.662Z,98340.28
2022-10-24T20:23:32.758Z,98343.31
2022-10-24T20:26:14.997Z,98336.97
2022-10-24T20:28:44.403Z,98353.84
2022-10-24T20:31:27.200Z,98356.94
2022-10-24T20:34:02.204Z,98385.97
2022-10-24T20:36:32.670Z,98392.09
2022-10-24T20:39:03.042Z,98398.56
2022-10-24T20:41:30.781Z,98408.19
2022-10-24T20:43:58.124Z,98412.03
2022-10-24T20:46:25.557Z,98421.75
2022-10-24T20:48:53.843Z,98433.38
2022-10-24T20:51:21.565Z,98424.66
2022-10-24T20:53:49.350Z,98434.44
2022-10-24T20:56:20.053Z,98432.69
2022-10-24T20:58:47.667Z,98415.75
2022-10-24T21:01:17.718Z,98411.41
2022-10-24T21:03:45.205Z,98441.06
2022-10-24T21:06:19.540Z,98440.94
2022-10-24T21:08:51.040Z,98427.53
2022-10-24T21:11:24.906Z,98424.28
2022-10-24T21:13:57.621Z,98425.50
2022-10-24T21:16:25.376Z,98433.72
2022-10-24T21:18:53.173Z,98425.28
2022-10-24T21:21:21.480Z,98408.13
2022-10-24T21:23:53.477Z,98401.56
2022-10-24T21:26:21.088Z,98425.84
2022-10-24T21:28:48.784Z,98419.22
2022-10-24T21:31:18.277Z,98424.00
2022-10-24T21:33:45.991Z,98429.81
2022-10-24T21:36:22.741Z,98427.38
2022-10-24T21:38:52.700Z,98427.00
2022-10-24T21:41:21.417Z,98428.19
2022-10-24T21:43:50.714Z,98423.28
2022-10-24T21:46:22.534Z,98428.41
2022-10-24T21:48:51.241Z,98426.84
2022-10-24T21:51:30.309Z,98420.50
2022-10-24T21:54:00.075Z,98429.81
2022-10-24T21:56:29.971Z,98437.78
2022-10-24T21:59:00.799Z,98437.31
2022-10-24T22:01:30.987Z,98434.56
2022-10-24T22:03:59.735Z,98440.38
2022-10-24T22:06:28.543Z,98441.63
2022-10-24T22:08:56.693Z,98447.66
2022-10-24T22:11:29.724Z,98445.44
2022-10-24T22:13:57.458Z,98448.53
2022-10-24T22:16:27.190Z,98445.22
2022-10-24T22:18:54.785Z,98450.16
2022-10-24T22:21:29.489Z,98450.78
2022-10-24T22:24:02.098Z,98457.41
2022-10-24T22:26:30.105Z,98464.25
2022-10-24T22:28:57.507Z,98465.34
2022-10-24T22:31:26.971Z,98464.38
2022-10-24T22:33:54.651Z,98462.81
2022-10-24T22:36:37.228Z,98458.56
2022-10-24T22:39:05.923Z,98464.94
2022-10-24T22:41:33.400Z,98467.00
2022-10-24T22:44:00.999Z,98472.31
2022-10-24T22:47:06.901Z,98483.97
2022-10-24T22:49:36.995Z,98474.44
2022-10-24T22:52:04.781Z,98475.44
2022-10-24T22:54:35.678Z,98472.91
2022-10-24T22:57:03.999Z,98477.38
2022-10-24T22:59:31.788Z,98473.97
2022-10-24T23:02:14.524Z,98473.16
2022-10-24T23:04:45.111Z,98475.41
2022-10-24T23:07:26.682Z,98469.75
2022-10-24T23:09:55.121Z,98478.78
2022-10-24T23:12:22.936Z,98478.84
2022-10-24T23:14:51.237Z,98472.97
2022-10-24T23:17:24.108Z,98480.16
2022-10-24T23:19:51.845Z,98480.41
2022-10-24T23:22:30.305Z,98480.19
2022-10-24T23:25:01.737Z,98485.66
2022-10-24T23:27:39.374Z,98481.09
2022-10-24T23:30:17.643Z,98484.72
2022-10-24T23:32:45.877Z,98499.50
2022-10-24T23:35:14.297Z,98496.31
2022-10-24T23:37:47.634Z,98502.06
2022-10-24T23:40:18.111Z,98495.53
2022-10-24T23:42:46.889Z,98492.25
2022-10-24T23:45:16.163Z,98495.19
2022-10-24T23:48:17.580Z,98496.09
2022-10-24T23:50:59.592Z,98486.53
2022-10-24T23:53:54.787Z,98488.38
2022-10-24T23:56:24.596Z,98487.63
2022-10-24T23:58:52.564Z,98493.19
